sensor_id;sensor_type;location;lat;lon;timestamp;noise_LAeq;noise_LA_min;noise_LA_max;noise_LA01;noise_LA95
59284;Laerm;45056;47.602;9.886;2024-03-25T00:01:29;43.22;35.04;59.14;;
59284;Laerm;45056;47.602;9.886;2024-03-25T00:03:57;40.69;34.69;55.31;;
59284;Laerm;45056;47.602;9.886;2024-03-25T00:06:24;39.22;34.69;43.97;;
59284;Laerm;45056;47.602;9.886;2024-03-25T00:08:54;42.30;35.66;58.35;;
59284;Laerm;45056;47.602;9.886;2024-03-25T00:11:21;43.42;34.31;58.03;;
59284;Laerm;45056;47.602;9.886;2024-03-25T00:13:49;41.19;34.31;51.59;;
59284;Laerm;45056;47.602;9.886;2024-03-25T00:16:16;40.07;35.04;53.86;;
59284;Laerm;45056;47.602;9.886;2024-03-25T00:18:44;42.95;36.10;61.93;;
59284;Laerm;45056;47.602;9.886;2024-03-25T00:21:11;42.72;34.69;60.16;;
59284;Laerm;45056;47.602;9.886;2024-03-25T00:23:39;38.11;33.90;44.80;;
59284;Laerm;45056;47.602;9.886;2024-03-25T00:26:07;38.69;34.69;48.46;;
59284;Laerm;45056;47.602;9.886;2024-03-25T00:28:35;41.97;35.04;57.93;;
59284;Laerm;45056;47.602;9.886;2024-03-25T00:31:04;39.84;34.69;53.17;;
59284;Laerm;45056;47.602;9.886;2024-03-25T00:33:32;41.13;33.44;57.28;;
59284;Laerm;45056;47.602;9.886;2024-03-25T00:35:59;38.66;35.04;44.15;;
59284;Laerm;45056;47.602;9.886;2024-03-25T00:38:27;39.89;35.66;42.90;;
59284;Laerm;45056;47.602;9.886;2024-03-25T00:40:54;41.79;35.36;57.52;;
59284;Laerm;45056;47.602;9.886;2024-03-25T00:43:24;38.37;34.31;45.39;;
59284;Laerm;45056;47.602;9.886;2024-03-25T00:45:51;40.55;34.69;55.01;;
59284;Laerm;45056;47.602;9.886;2024-03-25T00:48:19;38.98;34.69;46.73;;
59284;Laerm;45056;47.602;9.886;2024-03-25T00:50:46;38.60;34.69;45.20;;
59284;Laerm;45056;47.602;9.886;2024-03-25T00:53:14;38.45;34.69;41.30;;
59284;Laerm;45056;47.602;9.886;2024-03-25T00:55:41;38.75;34.31;42.29;;
59284;Laerm;45056;47.602;9.886;2024-03-25T00:58:09;41.67;36.91;45.48;;
59284;Laerm;45056;47.602;9.886;2024-03-25T01:00:38;44.33;36.45;57.60;;
59284;Laerm;45056;47.602;9.886;2024-03-25T01:03:06;38.96;35.36;42.65;;
59284;Laerm;45056;47.602;9.886;2024-03-25T01:05:33;38.14;34.69;46.48;;
59284;Laerm;45056;47.602;9.886;2024-03-25T01:08:01;38.17;33.90;43.04;;
59284;Laerm;45056;47.602;9.886;2024-03-25T01:10:28;41.91;35.36;56.93;;
59284;Laerm;45056;47.602;9.886;2024-03-25T01:12:57;38.61;34.31;48.48;;
59284;Laerm;45056;47.602;9.886;2024-03-25T01:15:24;39.91;35.04;55.04;;
59284;Laerm;45056;47.602;9.886;2024-03-25T01:17:53;39.87;36.20;43.39;;
59284;Laerm;45056;47.602;9.886;2024-03-25T01:20:20;39.07;35.04;45.91;;
59284;Laerm;45056;47.602;9.886;2024-03-25T01:22:48;39.17;34.69;45.14;;
59284;Laerm;45056;47.602;9.886;2024-03-25T01:25:16;46.48;35.04;64.13;;
59284;Laerm;45056;47.602;9.886;2024-03-25T01:27:44;38.68;34.69;53.32;;
59284;Laerm;45056;47.602;9.886;2024-03-25T01:30:12;44.22;34.69;63.53;;
59284;Laerm;45056;47.602;9.886;2024-03-25T01:32:41;38.52;35.04;46.20;;
59284;Laerm;45056;47.602;9.886;2024-03-25T01:35:11;39.16;34.69;43.68;;
59284;Laerm;45056;47.602;9.886;2024-03-25T01:37:38;40.19;35.94;45.42;;
59284;Laerm;45056;47.602;9.886;2024-03-25T01:40:07;40.38;35.04;44.80;;
59284;Laerm;45056;47.602;9.886;2024-03-25T01:42:36;38.47;35.36;47.61;;
59284;Laerm;45056;47.602;9.886;2024-03-25T01:45:04;39.97;34.69;55.02;;
59284;Laerm;45056;47.602;9.886;2024-03-25T01:47:33;41.82;35.04;59.52;;
59284;Laerm;45056;47.602;9.886;2024-03-25T01:50:02;40.57;35.36;50.53;;
59284;Laerm;45056;47.602;9.886;2024-03-25T01:52:32;38.28;33.44;46.35;;
59284;Laerm;45056;47.602;9.886;2024-03-25T01:55:01;39.74;34.69;44.35;;
59284;Laerm;45056;47.602;9.886;2024-03-25T01:57:30;39.63;35.04;45.69;;
59284;Laerm;45056;47.602;9.886;2024-03-25T01:59:58;40.61;35.66;54.33;;
59284;Laerm;45056;47.602;9.886;2024-03-25T02:02:26;43.41;34.69;59.09;;
59284;Laerm;45056;47.602;9.886;2024-03-25T02:04:55;38.53;33.90;44.73;;
59284;Laerm;45056;47.602;9.886;2024-03-25T02:07:26;46.76;35.04;65.44;;
59284;Laerm;45056;47.602;9.886;2024-03-25T02:09:55;38.75;35.04;43.09;;
59284;Laerm;45056;47.602;9.886;2024-03-25T02:12:24;44.22;34.69;60.07;;
59284;Laerm;45056;47.602;9.886;2024-03-25T02:14:52;38.21;34.31;48.34;;
59284;Laerm;45056;47.602;9.886;2024-03-25T02:17:19;39.41;35.04;54.53;;
59284;Laerm;45056;47.602;9.886;2024-03-25T02:19:47;40.05;36.69;43.49;;
59284;Laerm;45056;47.602;9.886;2024-03-25T02:22:15;42.45;35.36;57.02;;
59284;Laerm;45056;47.602;9.886;2024-03-25T02:24:46;40.83;35.66;50.24;;
59284;Laerm;45056;47.602;9.886;2024-03-25T02:27:21;41.05;35.66;51.42;;
59284;Laerm;45056;47.602;9.886;2024-03-25T02:29:48;38.70;34.69;46.84;;
59284;Laerm;45056;47.602;9.886;2024-03-25T02:32:16;39.72;35.04;52.97;;
59284;Laerm;45056;47.602;9.886;2024-03-25T02:34:52;38.25;33.44;43.90;;
59284;Laerm;45056;47.602;9.886;2024-03-25T02:37:20;38.61;35.36;43.94;;
59284;Laerm;45056;47.602;9.886;2024-03-25T02:39:48;40.95;35.04;54.39;;
59284;Laerm;45056;47.602;9.886;2024-03-25T02:42:16;38.63;34.31;54.39;;
59284;Laerm;45056;47.602;9.886;2024-03-25T02:44:45;41.74;35.66;56.21;;
59284;Laerm;45056;47.602;9.886;2024-03-25T02:47:13;41.49;35.94;55.32;;
59284;Laerm;45056;47.602;9.886;2024-03-25T02:49:40;38.83;35.04;46.80;;
59284;Laerm;45056;47.602;9.886;2024-03-25T02:52:09;38.42;34.34;45.57;;
59284;Laerm;45056;47.602;9.886;2024-03-25T02:54:37;40.97;33.90;56.23;;
59284;Laerm;45056;47.602;9.886;2024-03-25T02:57:05;38.27;34.31;43.94;;
59284;Laerm;45056;47.602;9.886;2024-03-25T02:59:32;38.54;34.31;42.82;;
59284;Laerm;45056;47.602;9.886;2024-03-25T03:02:01;46.63;35.59;59.41;;
59284;Laerm;45056;47.602;9.886;2024-03-25T03:04:28;40.62;35.36;53.17;;
59284;Laerm;45056;47.602;9.886;2024-03-25T03:06:56;42.47;35.94;55.21;;
59284;Laerm;45056;47.602;9.886;2024-03-25T03:09:23;41.63;36.45;54.35;;
59284;Laerm;45056;47.602;9.886;2024-03-25T03:11:51;42.37;36.91;54.24;;
59284;Laerm;45056;47.602;9.886;2024-03-25T03:14:18;39.42;35.04;43.94;;
59284;Laerm;45056;47.602;9.886;2024-03-25T03:16:46;42.17;35.04;57.05;;
59284;Laerm;45056;47.602;9.886;2024-03-25T03:19:15;41.65;34.31;57.13;;
59284;Laerm;45056;47.602;9.886;2024-03-25T03:21:43;43.59;35.36;61.10;;
59284;Laerm;45056;47.602;9.886;2024-03-25T03:24:09;40.63;35.66;46.64;;
59284;Laerm;45056;47.602;9.886;2024-03-25T03:26:37;39.93;36.69;42.47;;
59284;Laerm;45056;47.602;9.886;2024-03-25T03:29:04;40.04;35.66;45.01;;
59284;Laerm;45056;47.602;9.886;2024-03-25T03:31:34;43.07;35.94;56.08;;
59284;Laerm;45056;47.602;9.886;2024-03-25T03:34:01;38.88;35.36;42.09;;
59284;Laerm;45056;47.602;9.886;2024-03-25T03:36:30;41.32;35.36;57.15;;
59284;Laerm;45056;47.602;9.886;2024-03-25T03:38:57;40.26;35.36;52.35;;
59284;Laerm;45056;47.602;9.886;2024-03-25T03:41:25;41.47;36.69;48.43;;
59284;Laerm;45056;47.602;9.886;2024-03-25T03:43:52;44.15;36.20;54.11;;
59284;Laerm;45056;47.602;9.886;2024-03-25T03:46:20;46.00;35.66;62.65;;
59284;Laerm;45056;47.602;9.886;2024-03-25T03:48:47;43.38;36.20;56.28;;
59284;Laerm;45056;47.602;9.886;2024-03-25T03:51:15;43.09;36.45;58.15;;
59284;Laerm;45056;47.602;9.886;2024-03-25T03:53:43;46.74;38.52;58.61;;
59284;Laerm;45056;47.602;9.886;2024-03-25T03:56:11;44.69;36.45;57.94;;
59284;Laerm;45056;47.602;9.886;2024-03-25T03:58:38;45.63;37.32;57.40;;
59284;Laerm;45056;47.602;9.886;2024-03-25T04:01:15;50.28;38.67;63.77;;
59284;Laerm;45056;47.602;9.886;2024-03-25T04:03:42;44.21;36.20;57.96;;
59284;Laerm;45056;47.602;9.886;2024-03-25T04:06:13;44.59;38.37;57.96;;
59284;Laerm;45056;47.602;9.886;2024-03-25T04:08:40;46.51;38.37;59.08;;
59284;Laerm;45056;47.602;9.886;2024-03-25T04:11:10;44.62;36.45;61.97;;
59284;Laerm;45056;47.602;9.886;2024-03-25T04:13:37;46.43;35.94;57.45;;
59284;Laerm;45056;47.602;9.886;2024-03-25T04:16:06;48.28;39.34;62.33;;
59284;Laerm;45056;47.602;9.886;2024-03-25T04:18:33;52.76;40.13;71.51;;
59284;Laerm;45056;47.602;9.886;2024-03-25T04:21:01;43.63;37.88;53.82;;
59284;Laerm;45056;47.602;9.886;2024-03-25T04:23:28;45.46;37.32;57.03;;
59284;Laerm;45056;47.602;9.886;2024-03-25T04:26:01;45.08;37.12;56.47;;
59284;Laerm;45056;47.602;9.886;2024-03-25T04:28:30;45.35;37.12;57.99;;
59284;Laerm;45056;47.602;9.886;2024-03-25T04:30:58;48.66;38.37;62.91;;
59284;Laerm;45056;47.602;9.886;2024-03-25T04:33:25;42.93;38.21;51.33;;
59284;Laerm;45056;47.602;9.886;2024-03-25T04:35:53;44.41;39.21;55.95;;
59284;Laerm;45056;47.602;9.886;2024-03-25T04:38:19;46.62;39.21;59.10;;
59284;Laerm;45056;47.602;9.886;2024-03-25T04:40:47;48.10;40.62;60.44;;
59284;Laerm;45056;47.602;9.886;2024-03-25T04:43:14;50.36;39.21;62.29;;
59284;Laerm;45056;47.602;9.886;2024-03-25T04:45:42;47.46;39.08;58.92;;
59284;Laerm;45056;47.602;9.886;2024-03-25T04:48:10;49.09;41.30;59.37;;
59284;Laerm;45056;47.602;9.886;2024-03-25T04:50:37;50.50;41.30;62.97;;
59284;Laerm;45056;47.602;9.886;2024-03-25T04:53:04;47.97;40.89;57.47;;
59284;Laerm;45056;47.602;9.886;2024-03-25T04:55:31;48.18;38.95;60.63;;
59284;Laerm;45056;47.602;9.886;2024-03-25T04:57:58;44.38;37.32;55.77;;
59284;Laerm;45056;47.602;9.886;2024-03-25T05:00:25;49.11;40.53;59.69;;
59284;Laerm;45056;47.602;9.886;2024-03-25T05:02:54;52.61;40.43;64.63;;
59284;Laerm;45056;47.602;9.886;2024-03-25T05:05:21;56.35;41.89;68.26;;
59284;Laerm;45056;47.602;9.886;2024-03-25T05:07:48;48.25;39.46;61.63;;
59284;Laerm;45056;47.602;9.886;2024-03-25T05:10:15;47.66;37.88;58.85;;
59284;Laerm;45056;47.602;9.886;2024-03-25T05:12:42;47.86;38.52;58.32;;
59284;Laerm;45056;47.602;9.886;2024-03-25T05:15:09;48.20;39.21;59.24;;
59284;Laerm;45056;47.602;9.886;2024-03-25T05:17:36;47.36;40.43;61.41;;
59284;Laerm;45056;47.602;9.886;2024-03-25T05:20:06;51.56;39.70;69.88;;
59284;Laerm;45056;47.602;9.886;2024-03-25T05:22:33;49.46;39.21;64.46;;
59284;Laerm;45056;47.602;9.886;2024-03-25T05:25:00;47.55;38.52;58.00;;
59284;Laerm;45056;47.602;9.886;2024-03-25T05:27:27;48.15;39.11;58.77;;
59284;Laerm;45056;47.602;9.886;2024-03-25T05:29:54;49.47;41.75;61.36;;
59284;Laerm;45056;47.602;9.886;2024-03-25T05:32:21;48.98;39.70;60.16;;
59284;Laerm;45056;47.602;9.886;2024-03-25T05:34:48;49.62;39.81;73.45;;
59284;Laerm;45056;47.602;9.886;2024-03-25T05:37:16;50.44;40.53;61.69;;
59284;Laerm;45056;47.602;9.886;2024-03-25T05:39:43;49.71;41.30;60.43;;
59284;Laerm;45056;47.602;9.886;2024-03-25T05:42:11;49.45;41.53;60.21;;
59284;Laerm;45056;47.602;9.886;2024-03-25T05:44:38;52.58;41.30;66.61;;
59284;Laerm;45056;47.602;9.886;2024-03-25T05:47:05;49.38;40.03;58.49;;
59284;Laerm;45056;47.602;9.886;2024-03-25T05:49:32;49.43;40.53;61.26;;
59284;Laerm;45056;47.602;9.886;2024-03-25T05:51:59;50.25;39.35;62.44;;
59284;Laerm;45056;47.602;9.886;2024-03-25T05:54:27;52.32;44.43;60.18;;
59284;Laerm;45056;47.602;9.886;2024-03-25T05:56:54;51.20;41.61;62.24;;
59284;Laerm;45056;47.602;9.886;2024-03-25T05:59:21;50.99;40.03;65.00;;
59284;Laerm;45056;47.602;9.886;2024-03-25T06:01:48;51.41;41.68;63.10;;
59284;Laerm;45056;47.602;9.886;2024-03-25T06:04:15;49.68;40.03;60.38;;
59284;Laerm;45056;47.602;9.886;2024-03-25T06:06:42;50.61;39.21;58.98;;
59284;Laerm;45056;47.602;9.886;2024-03-25T06:09:09;49.09;41.22;58.49;;
59284;Laerm;45056;47.602;9.886;2024-03-25T06:11:38;49.85;40.62;61.94;;
59284;Laerm;45056;47.602;9.886;2024-03-25T06:14:05;49.78;40.71;61.56;;
59284;Laerm;45056;47.602;9.886;2024-03-25T06:16:32;52.72;40.71;72.64;;
59284;Laerm;45056;47.602;9.886;2024-03-25T06:18:59;52.41;41.61;65.43;;
59284;Laerm;45056;47.602;9.886;2024-03-25T06:21:26;50.74;42.16;65.39;;
59284;Laerm;45056;47.602;9.886;2024-03-25T06:23:53;49.44;41.75;58.18;;
59284;Laerm;45056;47.602;9.886;2024-03-25T06:26:20;50.05;40.71;59.26;;
59284;Laerm;45056;47.602;9.886;2024-03-25T06:28:49;51.28;41.30;64.37;;
59284;Laerm;45056;47.602;9.886;2024-03-25T06:31:16;50.94;41.61;63.21;;
59284;Laerm;45056;47.602;9.886;2024-03-25T06:33:58;49.86;41.06;63.49;;
59284;Laerm;45056;47.602;9.886;2024-03-25T06:36:44;49.14;40.98;57.75;;
59284;Laerm;45056;47.602;9.886;2024-03-25T06:39:11;51.02;42.35;62.68;;
59284;Laerm;45056;47.602;9.886;2024-03-25T06:41:38;52.01;42.09;65.22;;
59284;Laerm;45056;47.602;9.886;2024-03-25T06:44:06;50.94;40.80;63.45;;
59284;Laerm;45056;47.602;9.886;2024-03-25T06:46:34;49.45;42.03;58.71;;
59284;Laerm;45056;47.602;9.886;2024-03-25T06:49:01;49.88;42.71;58.59;;
59284;Laerm;45056;47.602;9.886;2024-03-25T06:51:28;50.50;43.29;60.05;;
59284;Laerm;45056;47.602;9.886;2024-03-25T06:53:55;52.48;40.71;72.47;;
59284;Laerm;45056;47.602;9.886;2024-03-25T06:56:22;52.48;41.46;74.80;;
59284;Laerm;45056;47.602;9.886;2024-03-25T06:58:49;52.74;42.53;64.96;;
59284;Laerm;45056;47.602;9.886;2024-03-25T07:01:18;54.43;42.98;68.84;;
59284;Laerm;45056;47.602;9.886;2024-03-25T07:03:45;50.79;40.03;60.51;;
59284;Laerm;45056;47.602;9.886;2024-03-25T07:06:12;50.65;42.36;61.42;;
59284;Laerm;45056;47.602;9.886;2024-03-25T07:08:39;50.83;41.38;66.10;;
59284;Laerm;45056;47.602;9.886;2024-03-25T07:11:06;51.40;41.46;64.19;;
59284;Laerm;45056;47.602;9.886;2024-03-25T07:13:33;51.72;43.54;65.36;;
59284;Laerm;45056;47.602;9.886;2024-03-25T07:16:00;50.42;41.68;62.34;;
59284;Laerm;45056;47.602;9.886;2024-03-25T07:18:28;49.02;41.22;60.91;;
59284;Laerm;45056;47.602;9.886;2024-03-25T07:20:55;48.85;39.81;57.77;;
59284;Laerm;45056;47.602;9.886;2024-03-25T07:23:22;48.87;40.43;62.87;;
59284;Laerm;45056;47.602;9.886;2024-03-25T07:25:49;51.40;41.30;71.62;;
59284;Laerm;45056;47.602;9.886;2024-03-25T07:28:16;49.11;41.14;61.47;;
59284;Laerm;45056;47.602;9.886;2024-03-25T07:30:43;48.72;40.71;57.41;;
59284;Laerm;45056;47.602;9.886;2024-03-25T07:33:10;50.04;41.30;63.11;;
59284;Laerm;45056;47.602;9.886;2024-03-25T07:35:39;50.21;42.00;61.48;;
59284;Laerm;45056;47.602;9.886;2024-03-25T07:38:06;49.31;41.53;59.45;;
59284;Laerm;45056;47.602;9.886;2024-03-25T07:40:33;49.37;38.95;59.02;;
59284;Laerm;45056;47.602;9.886;2024-03-25T07:43:00;49.99;41.46;62.02;;
59284;Laerm;45056;47.602;9.886;2024-03-25T07:45:27;52.54;40.54;69.52;;
59284;Laerm;45056;47.602;9.886;2024-03-25T07:47:54;50.25;42.22;64.42;;
59284;Laerm;45056;47.602;9.886;2024-03-25T07:50:21;50.21;41.89;66.98;;
59284;Laerm;45056;47.602;9.886;2024-03-25T07:52:49;48.90;41.30;58.02;;
59284;Laerm;45056;47.602;9.886;2024-03-25T07:55:16;49.55;42.22;59.09;;
59284;Laerm;45056;47.602;9.886;2024-03-25T07:57:43;48.67;40.89;58.89;;
59284;Laerm;45056;47.602;9.886;2024-03-25T08:00:11;50.80;41.96;62.25;;
59284;Laerm;45056;47.602;9.886;2024-03-25T08:02:39;49.26;41.82;57.69;;
59284;Laerm;45056;47.602;9.886;2024-03-25T08:05:06;51.62;42.09;66.77;;
59284;Laerm;45056;47.602;9.886;2024-03-25T08:07:33;48.21;40.43;60.59;;
59284;Laerm;45056;47.602;9.886;2024-03-25T08:10:02;49.64;41.89;60.63;;
59284;Laerm;45056;47.602;9.886;2024-03-25T08:12:29;50.13;42.16;59.90;;
59284;Laerm;45056;47.602;9.886;2024-03-25T08:14:56;48.69;41.06;60.40;;
59284;Laerm;45056;47.602;9.886;2024-03-25T08:17:23;52.85;42.65;66.14;;
59284;Laerm;45056;47.602;9.886;2024-03-25T08:19:50;54.56;42.88;65.82;;
59284;Laerm;45056;47.602;9.886;2024-03-25T08:22:17;50.24;41.53;58.78;;
59284;Laerm;45056;47.602;9.886;2024-03-25T08:24:44;50.76;40.62;64.73;;
59284;Laerm;45056;47.602;9.886;2024-03-25T08:27:12;49.57;42.76;60.36;;
59284;Laerm;45056;47.602;9.886;2024-03-25T08:29:39;50.41;40.43;62.36;;
59284;Laerm;45056;47.602;9.886;2024-03-25T08:32:06;49.53;40.08;58.83;;
59284;Laerm;45056;47.602;9.886;2024-03-25T08:34:33;48.91;41.61;56.95;;
59284;Laerm;45056;47.602;9.886;2024-03-25T08:37:00;52.83;41.53;77.12;;
59284;Laerm;45056;47.602;9.886;2024-03-25T08:39:27;53.31;41.22;71.94;;
59284;Laerm;45056;47.602;9.886;2024-03-25T08:41:54;48.81;40.89;57.68;;
59284;Laerm;45056;47.602;9.886;2024-03-25T08:44:23;50.33;41.61;66.37;;
59284;Laerm;45056;47.602;9.886;2024-03-25T08:46:50;51.51;41.75;67.57;;
59284;Laerm;45056;47.602;9.886;2024-03-25T08:49:17;49.05;43.09;59.57;;
59284;Laerm;45056;47.602;9.886;2024-03-25T08:51:44;48.10;40.33;57.56;;
59284;Laerm;45056;47.602;9.886;2024-03-25T08:54:11;50.90;41.75;64.52;;
59284;Laerm;45056;47.602;9.886;2024-03-25T08:56:38;52.44;41.82;66.97;;
59284;Laerm;45056;47.602;9.886;2024-03-25T08:59:05;51.73;43.49;62.41;;
59284;Laerm;45056;47.602;9.886;2024-03-25T09:01:34;51.71;42.35;61.64;;
59284;Laerm;45056;47.602;9.886;2024-03-25T09:04:01;50.24;42.22;64.52;;
59284;Laerm;45056;47.602;9.886;2024-03-25T09:06:28;50.82;40.89;65.16;;
59284;Laerm;45056;47.602;9.886;2024-03-25T09:08:55;48.32;41.61;58.58;;
59284;Laerm;45056;47.602;9.886;2024-03-25T09:11:40;48.26;40.53;55.85;;
59284;Laerm;45056;47.602;9.886;2024-03-25T09:14:07;51.56;43.72;63.11;;
59284;Laerm;45056;47.602;9.886;2024-03-25T09:16:36;48.11;42.47;56.16;;
59284;Laerm;45056;47.602;9.886;2024-03-25T09:19:03;49.17;41.61;58.26;;
59284;Laerm;45056;47.602;9.886;2024-03-25T09:21:30;49.33;41.14;61.98;;
59284;Laerm;45056;47.602;9.886;2024-03-25T09:23:57;47.62;40.80;61.52;;
59284;Laerm;45056;47.602;9.886;2024-03-25T09:26:24;50.35;41.14;66.06;;
59284;Laerm;45056;47.602;9.886;2024-03-25T09:28:51;48.28;41.61;57.21;;
59284;Laerm;45056;47.602;9.886;2024-03-25T09:31:18;50.89;42.82;64.46;;
59284;Laerm;45056;47.602;9.886;2024-03-25T09:33:46;48.94;42.06;56.79;;
59284;Laerm;45056;47.602;9.886;2024-03-25T09:36:13;49.21;43.34;60.99;;
59284;Laerm;45056;47.602;9.886;2024-03-25T09:38:40;48.32;41.38;60.90;;
59284;Laerm;45056;47.602;9.886;2024-03-25T09:41:09;48.62;40.53;66.80;;
59284;Laerm;45056;47.602;9.886;2024-03-25T09:43:44;52.38;42.65;68.58;;
59284;Laerm;45056;47.602;9.886;2024-03-25T09:46:14;52.54;42.03;66.49;;
59284;Laerm;45056;47.602;9.886;2024-03-25T09:48:42;49.05;41.53;60.41;;
59284;Laerm;45056;47.602;9.886;2024-03-25T09:51:10;48.28;41.53;61.00;;
59284;Laerm;45056;47.602;9.886;2024-03-25T09:53:37;50.41;41.75;60.90;;
59284;Laerm;45056;47.602;9.886;2024-03-25T09:56:06;52.69;43.09;68.03;;
59284;Laerm;45056;47.602;9.886;2024-03-25T09:58:33;49.22;42.82;56.71;;
59284;Laerm;45056;47.602;9.886;2024-03-25T10:01:00;51.52;43.04;59.24;;
59284;Laerm;45056;47.602;9.886;2024-03-25T10:03:27;50.94;42.53;62.18;;
59284;Laerm;45056;47.602;9.886;2024-03-25T10:05:54;48.42;39.46;59.41;;
59284;Laerm;45056;47.602;9.886;2024-03-25T10:08:23;48.21;42.22;57.54;;
59284;Laerm;45056;47.602;9.886;2024-03-25T10:10:50;48.66;41.30;60.10;;
59284;Laerm;45056;47.602;9.886;2024-03-25T10:13:17;49.35;41.82;58.80;;
59284;Laerm;45056;47.602;9.886;2024-03-25T10:15:47;48.69;39.81;62.16;;
59284;Laerm;45056;47.602;9.886;2024-03-25T10:18:14;49.30;40.62;62.44;;
59284;Laerm;45056;47.602;9.886;2024-03-25T10:20:48;49.73;42.65;58.25;;
59284;Laerm;45056;47.602;9.886;2024-03-25T10:23:15;48.50;41.30;57.24;;
59284;Laerm;45056;47.602;9.886;2024-03-25T10:25:43;51.51;41.14;66.20;;
59284;Laerm;45056;47.602;9.886;2024-03-25T10:28:14;49.71;42.03;60.47;;
59284;Laerm;45056;47.602;9.886;2024-03-25T10:30:41;52.05;42.29;69.19;;
59284;Laerm;45056;47.602;9.886;2024-03-25T10:33:09;50.40;41.46;64.54;;
59284;Laerm;45056;47.602;9.886;2024-03-25T10:35:38;51.93;42.09;64.80;;
59284;Laerm;45056;47.602;9.886;2024-03-25T10:38:07;48.06;41.38;58.79;;
59284;Laerm;45056;47.602;9.886;2024-03-25T10:40:37;49.78;39.70;62.15;;
59284;Laerm;45056;47.602;9.886;2024-03-25T10:43:08;50.76;41.68;61.88;;
59284;Laerm;45056;47.602;9.886;2024-03-25T10:45:40;49.66;41.82;60.43;;
59284;Laerm;45056;47.602;9.886;2024-03-25T10:48:15;51.14;43.49;65.99;;
59284;Laerm;45056;47.602;9.886;2024-03-25T10:50:47;48.04;40.43;56.90;;
59284;Laerm;45056;47.602;9.886;2024-03-25T10:53:18;50.58;41.68;60.79;;
59284;Laerm;45056;47.602;9.886;2024-03-25T10:55:47;49.63;42.16;57.70;;
59284;Laerm;45056;47.602;9.886;2024-03-25T10:58:22;49.27;40.53;62.22;;
59284;Laerm;45056;47.602;9.886;2024-03-25T11:00:52;50.59;40.33;59.27;;
59284;Laerm;45056;47.602;9.886;2024-03-25T11:03:21;60.10;42.59;75.50;;
59284;Laerm;45056;47.602;9.886;2024-03-25T11:05:49;63.68;41.68;74.91;;
59284;Laerm;45056;47.602;9.886;2024-03-25T11:08:17;50.05;42.03;60.27;;
59284;Laerm;45056;47.602;9.886;2024-03-25T11:10:47;49.08;39.81;60.93;;
59284;Laerm;45056;47.602;9.886;2024-03-25T11:13:18;49.07;40.98;61.50;;
59284;Laerm;45056;47.602;9.886;2024-03-25T11:15:48;51.95;42.65;64.74;;
59284;Laerm;45056;47.602;9.886;2024-03-25T11:18:21;52.90;41.06;73.35;;
59284;Laerm;45056;47.602;9.886;2024-03-25T11:21:00;50.53;41.96;65.64;;
59284;Laerm;45056;47.602;9.886;2024-03-25T11:23:37;48.60;41.30;57.46;;
59284;Laerm;45056;47.602;9.886;2024-03-25T11:26:05;50.32;40.71;61.82;;
59284;Laerm;45056;47.602;9.886;2024-03-25T11:28:33;49.42;42.09;56.96;;
59284;Laerm;45056;47.602;9.886;2024-03-25T11:31:01;52.86;40.13;68.16;;
59284;Laerm;45056;47.602;9.886;2024-03-25T11:33:28;50.55;40.33;64.90;;
59284;Laerm;45056;47.602;9.886;2024-03-25T11:35:55;50.10;42.41;60.98;;
59284;Laerm;45056;47.602;9.886;2024-03-25T11:38:22;48.93;41.30;60.69;;
59284;Laerm;45056;47.602;9.886;2024-03-25T11:40:49;50.64;42.16;63.05;;
59284;Laerm;45056;47.602;9.886;2024-03-25T11:43:19;49.67;41.46;61.59;;
59284;Laerm;45056;47.602;9.886;2024-03-25T11:45:49;52.60;41.06;64.95;;
59284;Laerm;45056;47.602;9.886;2024-03-25T11:48:16;48.84;40.33;59.63;;
59284;Laerm;45056;47.602;9.886;2024-03-25T11:50:45;50.46;41.46;64.70;;
59284;Laerm;45056;47.602;9.886;2024-03-25T11:53:14;50.30;42.22;61.70;;
59284;Laerm;45056;47.602;9.886;2024-03-25T11:55:46;53.98;40.62;69.74;;
59284;Laerm;45056;47.602;9.886;2024-03-25T11:58:13;49.66;39.92;57.13;;
59284;Laerm;45056;47.602;9.886;2024-03-25T12:00:45;50.42;40.98;66.93;;
59284;Laerm;45056;47.602;9.886;2024-03-25T12:03:14;50.72;42.03;63.48;;
59284;Laerm;45056;47.602;9.886;2024-03-25T12:05:42;49.75;41.14;58.58;;
59284;Laerm;45056;47.602;9.886;2024-03-25T12:08:09;50.53;43.24;61.97;;
59284;Laerm;45056;47.602;9.886;2024-03-25T12:10:38;50.79;42.03;62.29;;
59284;Laerm;45056;47.602;9.886;2024-03-25T12:13:25;49.37;41.68;58.79;;
59284;Laerm;45056;47.602;9.886;2024-03-25T12:15:53;49.24;41.82;58.99;;
59284;Laerm;45056;47.602;9.886;2024-03-25T12:18:22;48.78;41.68;58.22;;
59284;Laerm;45056;47.602;9.886;2024-03-25T12:20:49;52.09;43.09;64.86;;
59284;Laerm;45056;47.602;9.886;2024-03-25T12:23:16;49.80;41.89;65.45;;
59284;Laerm;45056;47.602;9.886;2024-03-25T12:25:48;51.71;40.89;67.51;;
59284;Laerm;45056;47.602;9.886;2024-03-25T12:28:16;50.64;40.53;63.90;;
59284;Laerm;45056;47.602;9.886;2024-03-25T12:30:52;50.43;41.96;64.91;;
59284;Laerm;45056;47.602;9.886;2024-03-25T12:33:19;49.94;41.14;60.51;;
59284;Laerm;45056;47.602;9.886;2024-03-25T12:35:49;50.19;39.46;64.93;;
59284;Laerm;45056;47.602;9.886;2024-03-25T12:38:24;48.78;40.80;62.96;;
59284;Laerm;45056;47.602;9.886;2024-03-25T12:40:53;48.96;41.82;58.39;;
59284;Laerm;45056;47.602;9.886;2024-03-25T12:43:21;48.61;40.53;60.22;;
59284;Laerm;45056;47.602;9.886;2024-03-25T12:45:48;49.32;41.75;63.78;;
59284;Laerm;45056;47.602;9.886;2024-03-25T12:48:15;49.12;41.06;59.76;;
59284;Laerm;45056;47.602;9.886;2024-03-25T12:50:43;48.41;41.96;61.32;;
59284;Laerm;45056;47.602;9.886;2024-03-25T12:53:18;51.55;41.46;64.51;;
59284;Laerm;45056;47.602;9.886;2024-03-25T12:55:46;48.78;40.33;60.77;;
59284;Laerm;45056;47.602;9.886;2024-03-25T12:58:14;47.94;39.92;60.88;;
59284;Laerm;45056;47.602;9.886;2024-03-25T13:00:42;50.64;40.62;64.87;;
59284;Laerm;45056;47.602;9.886;2024-03-25T13:03:10;48.66;42.16;59.08;;
59284;Laerm;45056;47.602;9.886;2024-03-25T13:05:37;47.34;40.62;56.85;;
59284;Laerm;45056;47.602;9.886;2024-03-25T13:08:05;48.31;40.80;57.51;;
59284;Laerm;45056;47.602;9.886;2024-03-25T13:10:34;48.72;41.30;57.75;;
59284;Laerm;45056;47.602;9.886;2024-03-25T13:13:02;48.05;41.89;55.77;;
59284;Laerm;45056;47.602;9.886;2024-03-25T13:15:29;49.84;41.14;61.73;;
59284;Laerm;45056;47.602;9.886;2024-03-25T13:17:56;48.73;41.53;56.05;;
59284;Laerm;45056;47.602;9.886;2024-03-25T13:20:24;48.42;39.81;56.63;;
59284;Laerm;45056;47.602;9.886;2024-03-25T13:22:54;48.10;40.71;57.89;;
59284;Laerm;45056;47.602;9.886;2024-03-25T13:25:22;48.25;42.41;56.61;;
59284;Laerm;45056;47.602;9.886;2024-03-25T13:27:50;49.14;42.41;57.73;;
59284;Laerm;45056;47.602;9.886;2024-03-25T13:30:17;52.68;42.41;63.39;;
59284;Laerm;45056;47.602;9.886;2024-03-25T13:32:45;47.79;41.30;59.67;;
59284;Laerm;45056;47.602;9.886;2024-03-25T13:35:12;47.66;40.13;58.35;;
59284;Laerm;45056;47.602;9.886;2024-03-25T13:37:39;49.32;41.96;56.67;;
59284;Laerm;45056;47.602;9.886;2024-03-25T13:40:07;49.98;42.76;59.92;;
59284;Laerm;45056;47.602;9.886;2024-03-25T13:42:35;49.08;42.41;57.00;;
59284;Laerm;45056;47.602;9.886;2024-03-25T13:45:04;50.29;43.09;60.61;;
59284;Laerm;45056;47.602;9.886;2024-03-25T13:47:31;49.34;42.41;61.84;;
59284;Laerm;45056;47.602;9.886;2024-03-25T13:50:03;49.92;41.46;59.55;;